sensor_id;sensor_type;location;lat;lon;timestamp;temperature;humidity
20881;DHT22;10600;53.096;8.802;2023-05-10T00:00:15;15.70;99.90
20881;DHT22;10600;53.096;8.802;2023-05-10T00:01:16;15.70;99.90
20881;DHT22;10600;53.096;8.802;2023-05-10T00:02:16;15.70;99.90
20881;DHT22;10600;53.096;8.802;2023-05-10T00:03:17;15.70;99.90
20881;DHT22;10600;53.096;8.802;2023-05-10T00:04:18;15.70;99.90
20881;DHT22;10600;53.096;8.802;2023-05-10T00:05:18;15.70;99.90
20881;DHT22;10600;53.096;8.802;2023-05-10T00:06:19;15.70;99.90
20881;DHT22;10600;53.096;8.802;2023-05-10T00:07:20;15.70;99.90
20881;DHT22;10600;53.096;8.802;2023-05-10T00:08:21;15.70;99.90
20881;DHT22;10600;53.096;8.802;2023-05-10T00:09:22;15.70;99.90
20881;DHT22;10600;53.096;8.802;2023-05-10T00:10:22;15.70;99.90
20881;DHT22;10600;53.096;8.802;2023-05-10T00:11:23;15.70;99.90
20881;DHT22;10600;53.096;8.802;2023-05-10T00:12:24;15.70;99.90
20881;DHT22;10600;53.096;8.802;2023-05-10T00:13:25;15.70;99.90
20881;DHT22;10600;53.096;8.802;2023-05-10T00:14:25;15.70;99.90
20881;DHT22;10600;53.096;8.802;2023-05-10T00:15:26;15.70;99.90
20881;DHT22;10600;53.096;8.802;2023-05-10T00:16:26;15.70;99.90
20881;DHT22;10600;53.096;8.802;2023-05-10T00:17:27;15.70;99.90
20881;DHT22;10600;53.096;8.802;2023-05-10T00:18:28;15.70;99.90
20881;DHT22;10600;53.096;8.802;2023-05-10T00:19:28;15.70;99.90
20881;DHT22;10600;53.096;8.802;2023-05-10T00:20:29;15.70;99.90
20881;DHT22;10600;53.096;8.802;2023-05-10T00:21:30;15.70;99.90
20881;DHT22;10600;53.096;8.802;2023-05-10T00:22:31;15.70;99.90
20881;DHT22;10600;53.096;8.802;2023-05-10T00:23:32;15.70;99.90
20881;DHT22;10600;53.096;8.802;2023-05-10T00:24:32;15.70;99.90
20881;DHT22;10600;53.096;8.802;2023-05-10T00:25:33;15.70;99.90
20881;DHT22;10600;53.096;8.802;2023-05-10T00:26:34;15.70;99.90
20881;DHT22;10600;53.096;8.802;2023-05-10T00:27:35;15.70;99.90
20881;DHT22;10600;53.096;8.802;2023-05-10T00:28:35;15.70;99.90
20881;DHT22;10600;53.096;8.802;2023-05-10T00:29:36;15.70;99.90
20881;DHT22;10600;53.096;8.802;2023-05-10T00:30:36;15.70;99.90
20881;DHT22;10600;53.096;8.802;2023-05-10T00:31:37;15.70;99.90
20881;DHT22;10600;53.096;8.802;2023-05-10T00:32:38;15.70;99.90
20881;DHT22;10600;53.096;8.802;2023-05-10T00:33:38;15.70;99.90
20881;DHT22;10600;53.096;8.802;2023-05-10T00:34:39;15.70;99.90
20881;DHT22;10600;53.096;8.802;2023-05-10T00:35:40;15.70;99.90
20881;DHT22;10600;53.096;8.802;2023-05-10T00:36:41;15.70;99.90
20881;DHT22;10600;53.096;8.802;2023-05-10T00:37:41;15.70;99.90
20881;DHT22;10600;53.096;8.802;2023-05-10T00:38:42;15.70;99.90
20881;DHT22;10600;53.096;8.802;2023-05-10T00:39:43;15.70;99.90
20881;DHT22;10600;53.096;8.802;2023-05-10T00:40:43;15.70;99.90
20881;DHT22;10600;53.096;8.802;2023-05-10T00:41:44;15.60;99.90
20881;DHT22;10600;53.096;8.802;2023-05-10T00:42:45;15.70;99.90
20881;DHT22;10600;53.096;8.802;2023-05-10T00:43:46;15.60;99.90
20881;DHT22;10600;53.096;8.802;2023-05-10T00:44:46;15.60;99.90
20881;DHT22;10600;53.096;8.802;2023-05-10T00:45:47;15.60;99.90
20881;DHT22;10600;53.096;8.802;2023-05-10T00:46:48;15.60;99.90
20881;DHT22;10600;53.096;8.802;2023-05-10T00:47:49;15.60;99.90
20881;DHT22;10600;53.096;8.802;2023-05-10T00:48:50;15.60;99.90
20881;DHT22;10600;53.096;8.802;2023-05-10T00:49:51;15.60;99.90
20881;DHT22;10600;53.096;8.802;2023-05-10T00:50:52;15.60;99.90
20881;DHT22;10600;53.096;8.802;2023-05-10T00:51:53;15.60;99.90
20881;DHT22;10600;53.096;8.802;2023-05-10T00:52:53;15.60;99.90
20881;DHT22;10600;53.096;8.802;2023-05-10T00:53:55;15.60;99.90
20881;DHT22;10600;53.096;8.802;2023-05-10T00:54:56;15.60;99.90
20881;DHT22;10600;53.096;8.802;2023-05-10T00:55:57;15.60;99.90
20881;DHT22;10600;53.096;8.802;2023-05-10T00:56:58;15.60;99.90
20881;DHT22;10600;53.096;8.802;2023-05-10T00:57:59;15.60;99.90
20881;DHT22;10600;53.096;8.802;2023-05-10T00:58:59;15.60;99.90
20881;DHT22;10600;53.096;8.802;2023-05-10T01:00:01;15.50;99.90
20881;DHT22;10600;53.096;8.802;2023-05-10T01:01:02;15.50;99.90
20881;DHT22;10600;53.096;8.802;2023-05-10T01:02:03;15.50;99.90
20881;DHT22;10600;53.096;8.802;2023-05-10T01:03:04;15.50;99.90
20881;DHT22;10600;53.096;8.802;2023-05-10T01:04:04;15.50;99.90
20881;DHT22;10600;53.096;8.802;2023-05-10T01:05:06;15.50;99.90
20881;DHT22;10600;53.096;8.802;2023-05-10T01:06:07;15.50;99.90
20881;DHT22;10600;53.096;8.802;2023-05-10T01:07:07;15.50;99.90
20881;DHT22;10600;53.096;8.802;2023-05-10T01:08:08;15.50;99.90
20881;DHT22;10600;53.096;8.802;2023-05-10T01:09:09;15.50;99.90
20881;DHT22;10600;53.096;8.802;2023-05-10T01:10:11;15.50;99.90
20881;DHT22;10600;53.096;8.802;2023-05-10T01:11:12;15.50;99.90
20881;DHT22;10600;53.096;8.802;2023-05-10T01:12:13;15.50;99.90
20881;DHT22;10600;53.096;8.802;2023-05-10T01:13:21;15.40;99.90
20881;DHT22;10600;53.096;8.802;2023-05-10T01:14:25;15.40;99.90
20881;DHT22;10600;53.096;8.802;2023-05-10T01:15:26;15.40;99.90
20881;DHT22;10600;53.096;8.802;2023-05-10T01:16:27;15.40;99.90
20881;DHT22;10600;53.096;8.802;2023-05-10T01:17:30;15.40;99.90
20881;DHT22;10600;53.096;8.802;2023-05-10T01:18:34;15.40;99.90
20881;DHT22;10600;53.096;8.802;2023-05-10T01:19:35;15.40;99.90
20881;DHT22;10600;53.096;8.802;2023-05-10T01:20:43;15.40;99.90
20881;DHT22;10600;53.096;8.802;2023-05-10T01:21:56;15.40;99.90
20881;DHT22;10600;53.096;8.802;2023-05-10T01:28:17;15.40;99.90
20881;DHT22;10600;53.096;8.802;2023-05-10T01:31:18;15.30;99.90
20881;DHT22;10600;53.096;8.802;2023-05-10T01:37:45;15.30;99.90
20881;DHT22;10600;53.096;8.802;2023-05-10T01:38:53;15.30;99.90
20881;DHT22;10600;53.096;8.802;2023-05-10T01:41:52;15.30;99.90
20881;DHT22;10600;53.096;8.802;2023-05-10T01:43:02;15.30;99.90
20881;DHT22;10600;53.096;8.802;2023-05-10T01:45:37;15.30;99.90
20881;DHT22;10600;53.096;8.802;2023-05-10T01:46:40;15.30;99.90
20881;DHT22;10600;53.096;8.802;2023-05-10T01:47:46;15.30;99.90
20881;DHT22;10600;53.096;8.802;2023-05-10T01:48:55;15.30;99.90
20881;DHT22;10600;53.096;8.802;2023-05-10T01:50:02;15.30;99.90
20881;DHT22;10600;53.096;8.802;2023-05-10T01:51:04;15.30;99.90
20881;DHT22;10600;53.096;8.802;2023-05-10T01:52:12;15.30;99.90
20881;DHT22;10600;53.096;8.802;2023-05-10T01:53:18;15.30;99.90
20881;DHT22;10600;53.096;8.802;2023-05-10T01:54:20;15.30;99.90
20881;DHT22;10600;53.096;8.802;2023-05-10T01:55:25;15.30;99.90
20881;DHT22;10600;53.096;8.802;2023-05-10T01:56:28;15.30;99.90
20881;DHT22;10600;53.096;8.802;2023-05-10T01:57:33;15.30;99.90
20881;DHT22;10600;53.096;8.802;2023-05-10T01:58:35;15.30;99.90
20881;DHT22;10600;53.096;8.802;2023-05-10T01:59:37;15.30;99.90
20881;DHT22;10600;53.096;8.802;2023-05-10T02:00:45;15.30;99.90
20881;DHT22;10600;53.096;8.802;2023-05-10T02:01:47;15.30;99.90
20881;DHT22;10600;53.096;8.802;2023-05-10T02:02:49;15.30;99.90
20881;DHT22;10600;53.096;8.802;2023-05-10T02:03:51;15.30;99.90
20881;DHT22;10600;53.096;8.802;2023-05-10T02:04:53;15.30;99.90
20881;DHT22;10600;53.096;8.802;2023-05-10T02:05:55;15.30;99.90
20881;DHT22;10600;53.096;8.802;2023-05-10T02:06:56;15.30;99.90
20881;DHT22;10600;53.096;8.802;2023-05-10T02:07:58;15.30;99.90
20881;DHT22;10600;53.096;8.802;2023-05-10T02:09:01;15.30;99.90
20881;DHT22;10600;53.096;8.802;2023-05-10T02:10:04;15.30;99.90
20881;DHT22;10600;53.096;8.802;2023-05-10T02:11:07;15.30;99.90
20881;DHT22;10600;53.096;8.802;2023-05-10T02:12:08;15.30;99.90
20881;DHT22;10600;53.096;8.802;2023-05-10T02:13:10;15.30;99.90
20881;DHT22;10600;53.096;8.802;2023-05-10T02:14:12;15.30;99.90
20881;DHT22;10600;53.096;8.802;2023-05-10T02:15:20;15.30;99.90
20881;DHT22;10600;53.096;8.802;2023-05-10T02:16:24;15.30;99.90
20881;DHT22;10600;53.096;8.802;2023-05-10T02:17:27;15.30;99.90
20881;DHT22;10600;53.096;8.802;2023-05-10T02:18:29;15.20;99.90
20881;DHT22;10600;53.096;8.802;2023-05-10T02:19:32;15.30;99.90
20881;DHT22;10600;53.096;8.802;2023-05-10T02:20:34;15.20;99.90
20881;DHT22;10600;53.096;8.802;2023-05-10T02:21:35;15.30;99.90
20881;DHT22;10600;53.096;8.802;2023-05-10T02:22:39;15.30;99.90
20881;DHT22;10600;53.096;8.802;2023-05-10T02:23:40;15.20;99.90
20881;DHT22;10600;53.096;8.802;2023-05-10T02:24:42;15.30;99.90
20881;DHT22;10600;53.096;8.802;2023-05-10T02:25:45;15.20;99.90
20881;DHT22;10600;53.096;8.802;2023-05-10T02:26:47;15.30;99.90
20881;DHT22;10600;53.096;8.802;2023-05-10T02:27:52;15.20;99.90
20881;DHT22;10600;53.096;8.802;2023-05-10T02:28:54;15.20;99.90
20881;DHT22;10600;53.096;8.802;2023-05-10T02:29:56;15.30;99.90
20881;DHT22;10600;53.096;8.802;2023-05-10T02:30:58;15.20;99.90
20881;DHT22;10600;53.096;8.802;2023-05-10T02:31:59;15.20;99.90
20881;DHT22;10600;53.096;8.802;2023-05-10T02:33:01;15.30;99.90
20881;DHT22;10600;53.096;8.802;2023-05-10T02:34:04;15.20;99.90
20881;DHT22;10600;53.096;8.802;2023-05-10T02:35:07;15.20;99.90
20881;DHT22;10600;53.096;8.802;2023-05-10T02:36:09;15.20;99.90
20881;DHT22;10600;53.096;8.802;2023-05-10T02:37:12;15.20;99.90
20881;DHT22;10600;53.096;8.802;2023-05-10T02:38:14;15.20;99.90
20881;DHT22;10600;53.096;8.802;2023-05-10T02:39:16;15.20;99.90
20881;DHT22;10600;53.096;8.802;2023-05-10T02:40:19;15.20;99.90
20881;DHT22;10600;53.096;8.802;2023-05-10T02:41:22;15.20;99.90
20881;DHT22;10600;53.096;8.802;2023-05-10T02:42:26;15.20;99.90
20881;DHT22;10600;53.096;8.802;2023-05-10T02:43:28;15.20;99.90
20881;DHT22;10600;53.096;8.802;2023-05-10T02:44:30;15.20;99.90
20881;DHT22;10600;53.096;8.802;2023-05-10T02:45:32;15.20;99.90
20881;DHT22;10600;53.096;8.802;2023-05-10T02:46:36;15.20;99.90
20881;DHT22;10600;53.096;8.802;2023-05-10T02:47:38;15.20;99.90
20881;DHT22;10600;53.096;8.802;2023-05-10T02:48:38;15.20;99.90
20881;DHT22;10600;53.096;8.802;2023-05-10T02:49:39;15.10;99.90
20881;DHT22;10600;53.096;8.802;2023-05-10T02:50:45;15.10;99.90
20881;DHT22;10600;53.096;8.802;2023-05-10T02:51:55;15.10;99.90
20881;DHT22;10600;53.096;8.802;2023-05-10T02:53:01;15.20;99.90
20881;DHT22;10600;53.096;8.802;2023-05-10T02:54:18;15.10;99.90
20881;DHT22;10600;53.096;8.802;2023-05-10T02:55:21;15.20;99.90
20881;DHT22;10600;53.096;8.802;2023-05-10T02:56:33;15.10;99.90
20881;DHT22;10600;53.096;8.802;2023-05-10T02:57:35;15.10;99.90
20881;DHT22;10600;53.096;8.802;2023-05-10T02:58:39;15.10;99.90
20881;DHT22;10600;53.096;8.802;2023-05-10T02:59:39;15.10;99.90
20881;DHT22;10600;53.096;8.802;2023-05-10T03:00:40;15.10;99.90
20881;DHT22;10600;53.096;8.802;2023-05-10T03:01:41;15.10;99.90
20881;DHT22;10600;53.096;8.802;2023-05-10T03:02:41;15.10;99.90
20881;DHT22;10600;53.096;8.802;2023-05-10T03:03:42;15.00;99.90
20881;DHT22;10600;53.096;8.802;2023-05-10T03:04:43;15.00;99.90
20881;DHT22;10600;53.096;8.802;2023-05-10T03:05:43;15.00;99.90
20881;DHT22;10600;53.096;8.802;2023-05-10T03:06:44;15.00;99.90
20881;DHT22;10600;53.096;8.802;2023-05-10T03:07:46;15.00;99.90
20881;DHT22;10600;53.096;8.802;2023-05-10T03:08:46;14.90;99.90
20881;DHT22;10600;53.096;8.802;2023-05-10T03:09:48;14.90;99.90
20881;DHT22;10600;53.096;8.802;2023-05-10T03:13:32;14.80;99.90
20881;DHT22;10600;53.096;8.802;2023-05-10T03:15:52;14.70;99.90
20881;DHT22;10600;53.096;8.802;2023-05-10T03:17:14;14.70;99.90
20881;DHT22;10600;53.096;8.802;2023-05-10T03:18:22;14.70;99.90
20881;DHT22;10600;53.096;8.802;2023-05-10T03:19:34;14.60;99.90
20881;DHT22;10600;53.096;8.802;2023-05-10T03:20:46;14.60;99.90
20881;DHT22;10600;53.096;8.802;2023-05-10T03:21:50;14.60;99.90
20881;DHT22;10600;53.096;8.802;2023-05-10T03:22:55;14.60;99.90
20881;DHT22;10600;53.096;8.802;2023-05-10T03:24:05;14.60;99.90
20881;DHT22;10600;53.096;8.802;2023-05-10T03:25:08;14.60;99.90
20881;DHT22;10600;53.096;8.802;2023-05-10T03:26:17;14.50;99.90
20881;DHT22;10600;53.096;8.802;2023-05-10T03:27:22;14.50;99.90
20881;DHT22;10600;53.096;8.802;2023-05-10T03:28:25;14.50;99.90
20881;DHT22;10600;53.096;8.802;2023-05-10T03:29:26;14.50;99.90
20881;DHT22;10600;53.096;8.802;2023-05-10T03:30:27;14.50;99.90
20881;DHT22;10600;53.096;8.802;2023-05-10T03:31:28;14.50;99.90
20881;DHT22;10600;53.096;8.802;2023-05-10T03:32:29;14.50;99.90
20881;DHT22;10600;53.096;8.802;2023-05-10T03:33:32;14.50;99.90
20881;DHT22;10600;53.096;8.802;2023-05-10T03:34:32;14.50;99.90
20881;DHT22;10600;53.096;8.802;2023-05-10T03:35:33;14.50;99.90
20881;DHT22;10600;53.096;8.802;2023-05-10T03:36:34;14.50;99.90
20881;DHT22;10600;53.096;8.802;2023-05-10T03:37:35;14.50;99.90
20881;DHT22;10600;53.096;8.802;2023-05-10T03:38:36;14.40;99.90
20881;DHT22;10600;53.096;8.802;2023-05-10T03:39:36;14.40;99.90
20881;DHT22;10600;53.096;8.802;2023-05-10T03:40:37;14.40;99.90
20881;DHT22;10600;53.096;8.802;2023-05-10T03:41:38;14.40;99.90
20881;DHT22;10600;53.096;8.802;2023-05-10T03:42:38;14.40;99.90
20881;DHT22;10600;53.096;8.802;2023-05-10T03:43:39;14.40;99.90
20881;DHT22;10600;53.096;8.802;2023-05-10T03:44:40;14.40;99.90
20881;DHT22;10600;53.096;8.802;2023-05-10T03:45:40;14.40;99.90
20881;DHT22;10600;53.096;8.802;2023-05-10T03:46:41;14.40;99.90
20881;DHT22;10600;53.096;8.802;2023-05-10T03:47:41;14.40;99.90
20881;DHT22;10600;53.096;8.802;2023-05-10T03:48:42;14.30;99.90
20881;DHT22;10600;53.096;8.802;2023-05-10T03:49:43;14.30;99.90
20881;DHT22;10600;53.096;8.802;2023-05-10T03:50:43;14.30;99.90
20881;DHT22;10600;53.096;8.802;2023-05-10T03:51:44;14.30;99.90
20881;DHT22;10600;53.096;8.802;2023-05-10T03:52:45;14.30;99.90
20881;DHT22;10600;53.096;8.802;2023-05-10T03:53:45;14.30;99.90
20881;DHT22;10600;53.096;8.802;2023-05-10T03:54:46;14.30;99.90
20881;DHT22;10600;53.096;8.802;2023-05-10T03:55:47;14.30;99.90
20881;DHT22;10600;53.096;8.802;2023-05-10T03:56:47;14.30;99.90
20881;DHT22;10600;53.096;8.802;2023-05-10T03:57:48;14.30;99.90
20881;DHT22;10600;53.096;8.802;2023-05-10T03:58:49;14.30;99.90
20881;DHT22;10600;53.096;8.802;2023-05-10T03:59:50;14.30;99.90
20881;DHT22;10600;53.096;8.802;2023-05-10T04:00:52;14.30;99.90
20881;DHT22;10600;53.096;8.802;2023-05-10T04:01:52;14.30;99.90
20881;DHT22;10600;53.096;8.802;2023-05-10T04:02:53;14.30;99.90
20881;DHT22;10600;53.096;8.802;2023-05-10T04:03:53;14.30;99.90
20881;DHT22;10600;53.096;8.802;2023-05-10T04:04:54;14.30;99.90
20881;DHT22;10600;53.096;8.802;2023-05-10T04:06:01;14.20;99.90
20881;DHT22;10600;53.096;8.802;2023-05-10T04:07:02;14.20;99.90
20881;DHT22;10600;53.096;8.802;2023-05-10T04:08:03;14.20;99.90
20881;DHT22;10600;53.096;8.802;2023-05-10T04:09:04;14.20;99.90
20881;DHT22;10600;53.096;8.802;2023-05-10T04:10:05;14.20;99.90
20881;DHT22;10600;53.096;8.802;2023-05-10T04:11:07;14.20;99.90
20881;DHT22;10600;53.096;8.802;2023-05-10T04:12:08;14.20;99.90
20881;DHT22;10600;53.096;8.802;2023-05-10T04:13:09;14.20;99.90
20881;DHT22;10600;53.096;8.802;2023-05-10T04:14:10;14.20;99.90
20881;DHT22;10600;53.096;8.802;2023-05-10T04:15:10;14.20;99.90
20881;DHT22;10600;53.096;8.802;2023-05-10T04:16:11;14.20;99.90
20881;DHT22;10600;53.096;8.802;2023-05-10T04:17:12;14.10;99.90
20881;DHT22;10600;53.096;8.802;2023-05-10T04:18:12;14.10;99.90
20881;DHT22;10600;53.096;8.802;2023-05-10T04:19:13;14.20;99.90
20881;DHT22;10600;53.096;8.802;2023-05-10T04:20:14;14.20;99.90
20881;DHT22;10600;53.096;8.802;2023-05-10T04:21:15;14.10;99.90
20881;DHT22;10600;53.096;8.802;2023-05-10T04:22:15;14.10;99.90
20881;DHT22;10600;53.096;8.802;2023-05-10T04:23:16;14.10;99.90
20881;DHT22;10600;53.096;8.802;2023-05-10T04:24:17;14.10;99.90
20881;DHT22;10600;53.096;8.802;2023-05-10T04:25:17;14.10;99.90
20881;DHT22;10600;53.096;8.802;2023-05-10T04:26:18;14.10;99.90
20881;DHT22;10600;53.096;8.802;2023-05-10T04:27:19;14.10;99.90
20881;DHT22;10600;53.096;8.802;2023-05-10T04:28:20;14.00;99.90
20881;DHT22;10600;53.096;8.802;2023-05-10T04:29:22;14.10;99.90
20881;DHT22;10600;53.096;8.802;2023-05-10T04:30:22;14.00;99.90
20881;DHT22;10600;53.096;8.802;2023-05-10T04:31:23;14.00;99.90
20881;DHT22;10600;53.096;8.802;2023-05-10T04:32:24;14.00;99.90
20881;DHT22;10600;53.096;8.802;2023-05-10T04:33:24;14.00;99.90
20881;DHT22;10600;53.096;8.802;2023-05-10T04:34:25;14.00;99.90
20881;DHT22;10600;53.096;8.802;2023-05-10T04:35:25;14.00;99.90
20881;DHT22;10600;53.096;8.802;2023-05-10T04:36:26;14.00;99.90
20881;DHT22;10600;53.096;8.802;2023-05-10T04:37:27;13.90;99.90
20881;DHT22;10600;53.096;8.802;2023-05-10T04:38:28;14.00;99.90
20881;DHT22;10600;53.096;8.802;2023-05-10T04:39:29;13.90;99.90
20881;DHT22;10600;53.096;8.802;2023-05-10T04:40:30;13.90;99.90
20881;DHT22;10600;53.096;8.802;2023-05-10T04:41:30;13.90;99.90
20881;DHT22;10600;53.096;8.802;2023-05-10T04:42:31;13.90;99.90
20881;DHT22;10600;53.096;8.802;2023-05-10T04:43:32;13.80;99.90
20881;DHT22;10600;53.096;8.802;2023-05-10T04:44:33;13.80;99.90
20881;DHT22;10600;53.096;8.802;2023-05-10T04:45:34;13.80;99.90
20881;DHT22;10600;53.096;8.802;2023-05-10T04:46:34;13.80;99.90
20881;DHT22;10600;53.096;8.802;2023-05-10T04:47:35;13.70;99.90
20881;DHT22;10600;53.096;8.802;2023-05-10T04:48:37;13.80;99.90
20881;DHT22;10600;53.096;8.802;2023-05-10T04:49:37;13.70;99.90
20881;DHT22;10600;53.096;8.802;2023-05-10T04:50:39;13.70;99.90
20881;DHT22;10600;53.096;8.802;2023-05-10T04:51:40;13.70;99.90
20881;DHT22;10600;53.096;8.802;2023-05-10T04:52:40;13.70;99.90
20881;DHT22;10600;53.096;8.802;2023-05-10T04:53:41;13.70;99.90
20881;DHT22;10600;53.096;8.802;2023-05-10T04:54:41;13.70;99.90
20881;DHT22;10600;53.096;8.802;2023-05-10T04:55:42;13.60;99.90
20881;DHT22;10600;53.096;8.802;2023-05-10T04:56:43;13.60;99.90
20881;DHT22;10600;53.096;8.802;2023-05-10T04:57:43;13.60;99.90
20881;DHT22;10600;53.096;8.802;2023-05-10T04:58:45;13.60;99.90
20881;DHT22;10600;53.096;8.802;2023-05-10T04:59:46;13.60;99.90
20881;DHT22;10600;53.096;8.802;2023-05-10T05:00:46;13.50;99.90
20881;DHT22;10600;53.096;8.802;2023-05-10T05:01:47;13.50;99.90
20881;DHT22;10600;53.096;8.802;2023-05-10T05:02:48;13.50;99.90
20881;DHT22;10600;53.096;8.802;2023-05-10T05:03:48;13.50;99.90
20881;DHT22;10600;53.096;8.802;2023-05-10T05:04:49;13.40;99.90
20881;DHT22;10600;53.096;8.802;2023-05-10T05:05:49;13.40;99.90
20881;DHT22;10600;53.096;8.802;2023-05-10T05:06:50;13.40;99.90
20881;DHT22;10600;53.096;8.802;2023-05-10T05:07:51;13.40;99.90
20881;DHT22;10600;53.096;8.802;2023-05-10T05:08:51;13.40;99.90
20881;DHT22;10600;53.096;8.802;2023-05-10T05:09:52;13.30;99.90
20881;DHT22;10600;53.096;8.802;2023-05-10T05:10:53;13.30;99.90
20881;DHT22;10600;53.096;8.802;2023-05-10T05:11:53;13.30;99.90
20881;DHT22;10600;53.096;8.802;2023-05-10T05:12:54;13.30;99.90
20881;DHT22;10600;53.096;8.802;2023-05-10T05:13:54;13.20;99.90
20881;DHT22;10600;53.096;8.802;2023-05-10T05:14:55;13.20;99.90
20881;DHT22;10600;53.096;8.802;2023-05-10T05:15:56;13.20;99.90
20881;DHT22;10600;53.096;8.802;2023-05-10T05:16:56;13.20;99.90
20881;DHT22;10600;53.096;8.802;2023-05-10T05:17:57;13.10;99.90
20881;DHT22;10600;53.096;8.802;2023-05-10T05:18:59;13.10;99.90
20881;DHT22;10600;53.096;8.802;2023-05-10T05:20:00;13.10;99.90
20881;DHT22;10600;53.096;8.802;2023-05-10T05:21:00;13.10;99.90
20881;DHT22;10600;53.096;8.802;2023-05-10T05:22:01;13.10;99.90
20881;DHT22;10600;53.096;8.802;2023-05-10T05:23:02;13.10;99.90
20881;DHT22;10600;53.096;8.802;2023-05-10T05:24:03;13.00;99.90
20881;DHT22;10600;53.096;8.802;2023-05-10T05:25:04;13.00;99.90
20881;DHT22;10600;53.096;8.802;2023-05-10T05:26:05;13.00;99.90
20881;DHT22;10600;53.096;8.802;2023-05-10T05:27:05;13.00;99.90
20881;DHT22;10600;53.096;8.802;2023-05-10T05:28:06;13.00;99.90
20881;DHT22;10600;53.096;8.802;2023-05-10T05:29:06;13.00;99.90
20881;DHT22;10600;53.096;8.802;2023-05-10T05:30:08;13.00;99.90
20881;DHT22;10600;53.096;8.802;2023-05-10T05:31:08;13.00;99.90
20881;DHT22;10600;53.096;8.802;2023-05-10T05:32:09;13.00;99.90
20881;DHT22;10600;53.096;8.802;2023-05-10T05:33:10;13.00;99.90
20881;DHT22;10600;53.096;8.802;2023-05-10T05:34:11;13.00;99.90
20881;DHT22;10600;53.096;8.802;2023-05-10T05:35:12;13.00;99.90
20881;DHT22;10600;53.096;8.802;2023-05-10T05:36:13;13.00;99.90
20881;DHT22;10600;53.096;8.802;2023-05-10T05:37:18;13.00;99.90
20881;DHT22;10600;53.096;8.802;2023-05-10T05:38:19;13.00;99.90
20881;DHT22;10600;53.096;8.802;2023-05-10T05:39:19;13.00;99.90
20881;DHT22;10600;53.096;8.802;2023-05-10T05:40:20;13.00;99.90
20881;DHT22;10600;53.096;8.802;2023-05-10T05:41:20;13.00;99.90
20881;DHT22;10600;53.096;8.802;2023-05-10T05:42:22;13.00;99.90
20881;DHT22;10600;53.096;8.802;2023-05-10T05:43:22;13.00;99.90
20881;DHT22;10600;53.096;8.802;2023-05-10T05:44:23;12.90;99.90
20881;DHT22;10600;53.096;8.802;2023-05-10T05:45:24;12.90;99.90
20881;DHT22;10600;53.096;8.802;2023-05-10T05:46:24;12.90;99.90
20881;DHT22;10600;53.096;8.802;2023-05-10T05:47:25;12.90;99.90
20881;DHT22;10600;53.096;8.802;2023-05-10T05:48:26;12.90;99.90
20881;DHT22;10600;53.096;8.802;2023-05-10T05:49:27;12.90;99.90
20881;DHT22;10600;53.096;8.802;2023-05-10T05:50:27;12.80;99.90
20881;DHT22;10600;53.096;8.802;2023-05-10T05:51:28;12.90;99.90
20881;DHT22;10600;53.096;8.802;2023-05-10T05:52:29;12.80;99.90
20881;DHT22;10600;53.096;8.802;2023-05-10T05:53:30;12.80;99.90
20881;DHT22;10600;53.096;8.802;2023-05-10T05:54:31;12.80;99.90
20881;DHT22;10600;53.096;8.802;2023-05-10T05:55:32;12.80;99.90
20881;DHT22;10600;53.096;8.802;2023-05-10T05:56:32;12.70;99.90
20881;DHT22;10600;53.096;8.802;2023-05-10T05:57:33;12.70;99.90
20881;DHT22;10600;53.096;8.802;2023-05-10T05:58:34;12.80;99.90
20881;DHT22;10600;53.096;8.802;2023-05-10T05:59:34;12.80;99.90
20881;DHT22;10600;53.096;8.802;2023-05-10T06:00:35;12.70;99.90
20881;DHT22;10600;53.096;8.802;2023-05-10T06:01:35;12.70;99.90
20881;DHT22;10600;53.096;8.802;2023-05-10T06:02:36;12.70;99.90
20881;DHT22;10600;53.096;8.802;2023-05-10T06:03:37;12.70;99.90
20881;DHT22;10600;53.096;8.802;2023-05-10T06:04:37;12.70;99.90
20881;DHT22;10600;53.096;8.802;2023-05-10T06:05:38;12.80;99.90
20881;DHT22;10600;53.096;8.802;2023-05-10T06:06:38;12.80;99.90
20881;DHT22;10600;53.096;8.802;2023-05-10T06:07:39;12.80;99.90
20881;DHT22;10600;53.096;8.802;2023-05-10T06:08:42;12.80;99.90
20881;DHT22;10600;53.096;8.802;2023-05-10T06:09:43;12.80;99.90
20881;DHT22;10600;53.096;8.802;2023-05-10T06:10:43;12.70;99.90
20881;DHT22;10600;53.096;8.802;2023-05-10T06:11:44;12.70;99.90
20881;DHT22;10600;53.096;8.802;2023-05-10T06:12:45;12.70;99.90
20881;DHT22;10600;53.096;8.802;2023-05-10T06:13:46;12.70;99.90
20881;DHT22;10600;53.096;8.802;2023-05-10T06:14:47;12.70;99.90
20881;DHT22;10600;53.096;8.802;2023-05-10T06:15:48;12.80;99.90
20881;DHT22;10600;53.096;8.802;2023-05-10T06:16:48;12.70;99.90
20881;DHT22;10600;53.096;8.802;2023-05-10T06:17:49;12.70;99.90
20881;DHT22;10600;53.096;8.802;2023-05-10T06:18:50;12.70;99.90
20881;DHT22;10600;53.096;8.802;2023-05-10T06:19:51;12.70;99.90
20881;DHT22;10600;53.096;8.802;2023-05-10T06:20:51;12.80;99.90
20881;DHT22;10600;53.096;8.802;2023-05-10T06:21:52;12.80;99.90
20881;DHT22;10600;53.096;8.802;2023-05-10T06:22:53;12.80;99.90
20881;DHT22;10600;53.096;8.802;2023-05-10T06:23:53;12.70;99.90
20881;DHT22;10600;53.096;8.802;2023-05-10T06:24:54;12.70;99.90
20881;DHT22;10600;53.096;8.802;2023-05-10T06:25:55;12.80;99.90
20881;DHT22;10600;53.096;8.802;2023-05-10T06:26:55;12.80;99.90
20881;DHT22;10600;53.096;8.802;2023-05-10T06:27:56;12.80;99.90
20881;DHT22;10600;53.096;8.802;2023-05-10T06:28:58;12.70;99.90
20881;DHT22;10600;53.096;8.802;2023-05-10T06:29:58;12.70;99.90
20881;DHT22;10600;53.096;8.802;2023-05-10T06:30:59;12.70;99.90
20881;DHT22;10600;53.096;8.802;2023-05-10T06:32:00;12.70;99.90
20881;DHT22;10600;53.096;8.802;2023-05-10T06:33:01;12.80;99.90
20881;DHT22;10600;53.096;8.802;2023-05-10T06:34:02;12.70;99.90
20881;DHT22;10600;53.096;8.802;2023-05-10T06:35:03;12.80;99.90
20881;DHT22;10600;53.096;8.802;2023-05-10T06:36:04;12.70;99.90
20881;DHT22;10600;53.096;8.802;2023-05-10T06:37:04;12.80;99.90
20881;DHT22;10600;53.096;8.802;2023-05-10T06:38:05;12.70;99.90
20881;DHT22;10600;53.096;8.802;2023-05-10T06:39:06;12.80;99.90
20881;DHT22;10600;53.096;8.802;2023-05-10T06:40:07;12.80;99.90
20881;DHT22;10600;53.096;8.802;2023-05-10T06:41:08;12.80;99.90
20881;DHT22;10600;53.096;8.802;2023-05-10T06:42:09;12.80;99.90
20881;DHT22;10600;53.096;8.802;2023-05-10T06:43:09;12.80;99.90
20881;DHT22;10600;53.096;8.802;2023-05-10T06:44:10;12.80;99.90
20881;DHT22;10600;53.096;8.802;2023-05-10T06:45:11;12.80;99.90
20881;DHT22;10600;53.096;8.802;2023-05-10T06:46:12;12.90;99.90
20881;DHT22;10600;53.096;8.802;2023-05-10T06:47:12;12.80;99.90
20881;DHT22;10600;53.096;8.802;2023-05-10T06:48:13;12.80;99.90
20881;DHT22;10600;53.096;8.802;2023-05-10T06:49:13;12.90;99.90